Potomac, MD

11:09 AM EDT on June 03, 2015 (GMT -0400)
Potomac | | Change Station
CLOSE
Current Station
Personal Weather Station
Location: Potomac, MD
Elevation: 371 ft
Nearby Weather Stations

Elev 371 ft 39.02 °N, 77.21 °W | Updated 3 seconds ago

Overcast
Overcast
56.6 °F
Feels Like 56.6 °F
N
0.0
Wind Variable Wind from NNE
Gusts 6.0 mph

Today
High -- | Low -- °F
--% Chance of Precip.
Yesterday
High -- | Low -- °F
Precip. -- in
5:44 AM 8:30 PM
Full, 99% visible
Pressure 30.24 in
Visibility 10.0 miles
Clouds Overcast 1000 ft
Dew Point 56 °F
Humidity 97%
Rainfall 0.02 in
Snow Depth Not available.
UV 1.0 out of 12
Pollen .80 out of 12
Air Quality Not available.
Flu Activity Sporadic
METAR KGAI 031455Z AUTO 06003KT 10SM OVC010 13/11 A3024 RMK AO1 52010

More Conditions Fewer Conditions

Pressure 30.24 in
Visibility 10.0 miles
Clouds Overcast 1000 ft
Dew Point 56 °F
Humidity 97%
Rainfall 0.02 in
Snow Depth Not available.
UV 1.0 out of 12
Pollen .80 out of 12
Air Quality Not available.
Flu Activity Sporadic
METAR KGAI 031455Z AUTO 06003KT 10SM OVC010 13/11 A3024 RMK AO1 52010

More Conditions Fewer Conditions

10-Day Weather Forecast

×

Almanac

Astronomy

Jun. 03, 2015 Rise Set
Actual Time
Civil Twilight
Nautical Twilight
Astronomical Twilight
Moon
Length of Visible Light
Length of Day
Tomorrow will be .
, % of the Moon is Illuminated

Today's Extremes

State Highs State Lows

Community

WunderPhotos

Upload Photos

1,826,234 photos uploaded!

WunderBlogs® & News

Nearby

Air Quality

  Air Quality AQ Index Pollutant
Not available.

Snow Depth

Station Depth Elevation

Earthquake Activity

City Distance Mag. Time & Date
Minimum magnitude displayed is 2.5.

Coastal Water Temperatures

Place Temperature

Stations

Nearby Weather Stations

Station Location Temp. Windchill Dew Point Humidity Wind Precip. Elev Updated Type